Pittsburg, NH

5:10 PM EST on January 30, 2015 (GMT -0500)
Lyndonville | Change Station
CLOSE
Current Station
Airport
Location: Lyndonville,
Elevation: 1188 ft
Nearby Weather Stations

Elev 1188 ft 44.57 °N, 72.02 °W | Updated 15 minutes ago

Snow
Snow
17 °F
Feels Like 4 °F
N
10
Wind Variable Wind from WNW
Gusts 17 mph

Today
High -- | Low -- °F
--% Chance of Precip.
Yesterday
High -- | Low -- °F
Precip. -- in
7:07 AM 4:49 PM
Waxing Gibbous, 85% visible
Pressure 29.84 in
Visibility 3.0 miles
Clouds Overcast 1600 ft
Windchill 4 °F
Dew Point 10 °F
Humidity 75%
Rainfall 0.00 in
Snow Depth Not available.
UV 0 out of 12
Pollen .10 out of 12
Air Quality Not available.
Flu Activity Not available.
METAR KCDA 302155Z AUTO 30009G15KT 3SM -SN OVC016 M08/M12 A2984 RMK AO2 T10851122

More Conditions Fewer Conditions

Pressure 29.84 in
Visibility 3.0 miles
Clouds Overcast 1600 ft
Windchill 4 °F
Dew Point 10 °F
Humidity 75%
Rainfall 0.00 in
Snow Depth Not available.
UV 0 out of 12
Pollen .10 out of 12
Air Quality Not available.
Flu Activity Not available.
METAR KCDA 302155Z AUTO 30009G15KT 3SM -SN OVC016 M08/M12 A2984 RMK AO2 T10851122

More Conditions Fewer Conditions

10-Day Weather Forecast

Almanac

Astronomy

Jan. 30, 2015 Rise Set
Actual Time
Civil Twilight
Nautical Twilight
Astronomical Twilight
Moon
Length of Visible Light
Length of Day
Tomorrow will be .
, % of the Moon is Illuminated

Today's Extremes

State Highs State Lows

Community

WunderPhotos

Upload Photos

1,791,904 photos uploaded!

WunderBlogs® & News

Nearby

Air Quality

  Air Quality AQ Index Pollutant
Not available.

Snow Depth

Station Depth Elevation

Earthquake Activity

City Distance Mag. Time & Date
Minimum magnitude displayed is 2.5.

Coastal Water Temperatures

Place Temperature

Nearby Weather Stations